sensor_id;sensor_type;location;lat;lon;timestamp;P1;durP1;ratioP1;P2;durP2;ratioP2
38779;SDS011;29273;49.962;9.768;2022-11-03T00:00:26;2.40;;;1.92;;
38779;SDS011;29273;49.962;9.768;2022-11-03T00:02:51;2.53;;;1.70;;
38779;SDS011;29273;49.962;9.768;2022-11-03T00:05:17;3.05;;;2.05;;
38779;SDS011;29273;49.962;9.768;2022-11-03T00:08:01;2.85;;;1.75;;
38779;SDS011;29273;49.962;9.768;2022-11-03T00:10:28;2.83;;;1.80;;
38779;SDS011;29273;49.962;9.768;2022-11-03T00:12:54;3.67;;;2.05;;
38779;SDS011;29273;49.962;9.768;2022-11-03T00:15:20;3.40;;;1.85;;
38779;SDS011;29273;49.962;9.768;2022-11-03T00:17:45;3.38;;;1.98;;
38779;SDS011;29273;49.962;9.768;2022-11-03T00:20:11;3.95;;;2.15;;
38779;SDS011;29273;49.962;9.768;2022-11-03T00:22:36;3.15;;;1.83;;
38779;SDS011;29273;49.962;9.768;2022-11-03T00:25:02;2.20;;;1.75;;
38779;SDS011;29273;49.962;9.768;2022-11-03T00:27:28;2.58;;;1.52;;
38779;SDS011;29273;49.962;9.768;2022-11-03T00:29:53;3.45;;;2.00;;
38779;SDS011;29273;49.962;9.768;2022-11-03T00:32:19;4.75;;;2.10;;
38779;SDS011;29273;49.962;9.768;2022-11-03T00:34:44;2.45;;;1.67;;
38779;SDS011;29273;49.962;9.768;2022-11-03T00:37:10;2.75;;;1.67;;
38779;SDS011;29273;49.962;9.768;2022-11-03T00:39:35;2.60;;;2.03;;
38779;SDS011;29273;49.962;9.768;2022-11-03T00:42:01;3.55;;;2.00;;
38779;SDS011;29273;49.962;9.768;2022-11-03T00:44:26;5.47;;;2.05;;
38779;SDS011;29273;49.962;9.768;2022-11-03T00:46:52;2.47;;;1.85;;
38779;SDS011;29273;49.962;9.768;2022-11-03T00:49:17;4.05;;;2.30;;
38779;SDS011;29273;49.962;9.768;2022-11-03T00:51:43;3.85;;;2.30;;
38779;SDS011;29273;49.962;9.768;2022-11-03T00:54:08;4.57;;;2.00;;
38779;SDS011;29273;49.962;9.768;2022-11-03T00:56:35;2.28;;;1.65;;
38779;SDS011;29273;49.962;9.768;2022-11-03T00:59:02;3.20;;;1.70;;
38779;SDS011;29273;49.962;9.768;2022-11-03T01:01:36;4.75;;;1.70;;
38779;SDS011;29273;49.962;9.768;2022-11-03T01:04:06;4.03;;;1.58;;
38779;SDS011;29273;49.962;9.768;2022-11-03T01:06:51;2.30;;;1.85;;
38779;SDS011;29273;49.962;9.768;2022-11-03T01:09:19;2.85;;;1.55;;
38779;SDS011;29273;49.962;9.768;2022-11-03T01:12:00;4.47;;;1.52;;
38779;SDS011;29273;49.962;9.768;2022-11-03T01:14:27;1.95;;;1.40;;
38779;SDS011;29273;49.962;9.768;2022-11-03T01:16:58;2.15;;;1.50;;
38779;SDS011;29273;49.962;9.768;2022-11-03T01:19:23;2.20;;;1.63;;
38779;SDS011;29273;49.962;9.768;2022-11-03T01:21:50;7.88;;;1.45;;
38779;SDS011;29273;49.962;9.768;2022-11-03T01:24:16;2.03;;;1.58;;
38779;SDS011;29273;49.962;9.768;2022-11-03T01:26:42;2.20;;;1.40;;
38779;SDS011;29273;49.962;9.768;2022-11-03T01:29:07;1.63;;;1.33;;
38779;SDS011;29273;49.962;9.768;2022-11-03T01:31:33;1.40;;;1.30;;
38779;SDS011;29273;49.962;9.768;2022-11-03T01:33:59;6.82;;;1.85;;
38779;SDS011;29273;49.962;9.768;2022-11-03T01:36:24;1.65;;;1.27;;
38779;SDS011;29273;49.962;9.768;2022-11-03T01:38:50;4.28;;;1.30;;
38779;SDS011;29273;49.962;9.768;2022-11-03T01:41:20;2.33;;;1.48;;
38779;SDS011;29273;49.962;9.768;2022-11-03T01:43:50;1.63;;;1.30;;
38779;SDS011;29273;49.962;9.768;2022-11-03T01:46:31;4.43;;;1.25;;
38779;SDS011;29273;49.962;9.768;2022-11-03T01:51:48;1.58;;;1.38;;
38779;SDS011;29273;49.962;9.768;2022-11-03T01:54:20;1.63;;;1.42;;
38779;SDS011;29273;49.962;9.768;2022-11-03T01:56:48;1.45;;;1.35;;
38779;SDS011;29273;49.962;9.768;2022-11-03T01:59:16;2.00;;;1.42;;
38779;SDS011;29273;49.962;9.768;2022-11-03T02:01:45;2.05;;;1.70;;
38779;SDS011;29273;49.962;9.768;2022-11-03T02:04:32;2.33;;;1.70;;
38779;SDS011;29273;49.962;9.768;2022-11-03T02:07:41;2.65;;;1.65;;
38779;SDS011;29273;49.962;9.768;2022-11-03T02:09:49;2.25;;;1.52;;
38779;SDS011;29273;49.962;9.768;2022-11-03T02:12:15;2.78;;;1.60;;
38779;SDS011;29273;49.962;9.768;2022-11-03T02:14:44;2.15;;;1.70;;
38779;SDS011;29273;49.962;9.768;2022-11-03T02:17:15;2.80;;;1.77;;
38779;SDS011;29273;49.962;9.768;2022-11-03T02:19:56;2.50;;;2.00;;
38779;SDS011;29273;49.962;9.768;2022-11-03T02:25:33;2.47;;;1.92;;
38779;SDS011;29273;49.962;9.768;2022-11-03T02:28:10;1.88;;;1.63;;
38779;SDS011;29273;49.962;9.768;2022-11-03T02:30:45;4.03;;;1.77;;
38779;SDS011;29273;49.962;9.768;2022-11-03T02:33:27;4.00;;;1.50;;
38779;SDS011;29273;49.962;9.768;2022-11-03T02:36:14;4.00;;;1.50;;
38779;SDS011;29273;49.962;9.768;2022-11-03T02:38:53;1.77;;;1.52;;
38779;SDS011;29273;49.962;9.768;2022-11-03T02:41:22;1.52;;;1.38;;
38779;SDS011;29273;49.962;9.768;2022-11-03T02:43:48;1.80;;;1.58;;
38779;SDS011;29273;49.962;9.768;2022-11-03T02:46:15;2.25;;;1.48;;
38779;SDS011;29273;49.962;9.768;2022-11-03T02:48:42;1.73;;;1.50;;
38779;SDS011;29273;49.962;9.768;2022-11-03T02:51:07;1.45;;;1.33;;
38779;SDS011;29273;49.962;9.768;2022-11-03T02:53:35;2.03;;;1.30;;
38779;SDS011;29273;49.962;9.768;2022-11-03T02:56:10;1.50;;;1.38;;
38779;SDS011;29273;49.962;9.768;2022-11-03T03:04:11;1.50;;;1.27;;
38779;SDS011;29273;49.962;9.768;2022-11-03T03:06:54;1.40;;;1.27;;
38779;SDS011;29273;49.962;9.768;2022-11-03T03:09:28;3.42;;;1.40;;
38779;SDS011;29273;49.962;9.768;2022-11-03T03:11:58;2.17;;;1.23;;
38779;SDS011;29273;49.962;9.768;2022-11-03T03:14:30;1.30;;;1.20;;
38779;SDS011;29273;49.962;9.768;2022-11-03T03:17:03;2.08;;;1.23;;
38779;SDS011;29273;49.962;9.768;2022-11-03T03:25:01;5.38;;;1.20;;
38779;SDS011;29273;49.962;9.768;2022-11-03T03:27:35;1.23;;;1.10;;
38779;SDS011;29273;49.962;9.768;2022-11-03T03:30:06;3.30;;;1.10;;
38779;SDS011;29273;49.962;9.768;2022-11-03T03:32:34;3.63;;;1.10;;
38779;SDS011;29273;49.962;9.768;2022-11-03T03:35:03;1.42;;;1.30;;
38779;SDS011;29273;49.962;9.768;2022-11-03T03:37:36;2.42;;;1.25;;
38779;SDS011;29273;49.962;9.768;2022-11-03T03:40:06;1.30;;;1.20;;
38779;SDS011;29273;49.962;9.768;2022-11-03T03:42:35;1.17;;;1.08;;
38779;SDS011;29273;49.962;9.768;2022-11-03T03:45:05;2.97;;;1.20;;
38779;SDS011;29273;49.962;9.768;2022-11-03T03:47:33;1.15;;;1.10;;
38779;SDS011;29273;49.962;9.768;2022-11-03T03:49:59;1.25;;;1.15;;
38779;SDS011;29273;49.962;9.768;2022-11-03T03:52:25;1.50;;;1.40;;
38779;SDS011;29273;49.962;9.768;2022-11-03T03:54:53;1.17;;;1.08;;
38779;SDS011;29273;49.962;9.768;2022-11-03T03:57:21;1.83;;;1.48;;
38779;SDS011;29273;49.962;9.768;2022-11-03T03:59:48;1.30;;;1.17;;
38779;SDS011;29273;49.962;9.768;2022-11-03T04:02:14;1.63;;;1.52;;
38779;SDS011;29273;49.962;9.768;2022-11-03T04:04:40;1.65;;;1.50;;
38779;SDS011;29273;49.962;9.768;2022-11-03T04:07:06;1.58;;;1.30;;
38779;SDS011;29273;49.962;9.768;2022-11-03T04:09:51;1.23;;;1.13;;
38779;SDS011;29273;49.962;9.768;2022-11-03T04:12:16;3.92;;;1.20;;
38779;SDS011;29273;49.962;9.768;2022-11-03T04:15:00;1.17;;;1.00;;
38779;SDS011;29273;49.962;9.768;2022-11-03T04:17:45;2.10;;;1.38;;
38779;SDS011;29273;49.962;9.768;2022-11-03T04:20:30;1.50;;;1.23;;
38779;SDS011;29273;49.962;9.768;2022-11-03T04:23:15;1.50;;;1.27;;
38779;SDS011;29273;49.962;9.768;2022-11-03T04:25:42;1.50;;;1.30;;
38779;SDS011;29273;49.962;9.768;2022-11-03T04:28:12;1.55;;;1.10;;
38779;SDS011;29273;49.962;9.768;2022-11-03T04:30:39;1.45;;;0.95;;
38779;SDS011;29273;49.962;9.768;2022-11-03T04:33:15;1.10;;;1.00;;
38779;SDS011;29273;49.962;9.768;2022-11-03T04:35:44;2.05;;;1.10;;
38779;SDS011;29273;49.962;9.768;2022-11-03T04:40:45;2.25;;;1.20;;
38779;SDS011;29273;49.962;9.768;2022-11-03T04:43:13;0.98;;;0.90;;
38779;SDS011;29273;49.962;9.768;2022-11-03T04:45:39;1.10;;;1.00;;
38779;SDS011;29273;49.962;9.768;2022-11-03T04:48:15;2.00;;;1.20;;
38779;SDS011;29273;49.962;9.768;2022-11-03T04:50:46;1.48;;;0.95;;
38779;SDS011;29273;49.962;9.768;2022-11-03T04:53:14;1.15;;;1.05;;
38779;SDS011;29273;49.962;9.768;2022-11-03T04:55:42;1.65;;;1.30;;
38779;SDS011;29273;49.962;9.768;2022-11-03T04:58:19;1.92;;;1.30;;
38779;SDS011;29273;49.962;9.768;2022-11-03T05:00:53;1.58;;;1.20;;
38779;SDS011;29273;49.962;9.768;2022-11-03T05:03:31;1.52;;;1.38;;
38779;SDS011;29273;49.962;9.768;2022-11-03T05:05:59;1.20;;;1.10;;
38779;SDS011;29273;49.962;9.768;2022-11-03T05:08:57;1.20;;;1.08;;
38779;SDS011;29273;49.962;9.768;2022-11-03T05:11:36;1.23;;;1.10;;
38779;SDS011;29273;49.962;9.768;2022-11-03T05:14:06;1.30;;;1.20;;
38779;SDS011;29273;49.962;9.768;2022-11-03T05:16:39;1.33;;;1.23;;
38779;SDS011;29273;49.962;9.768;2022-11-03T05:19:17;1.55;;;1.40;;
38779;SDS011;29273;49.962;9.768;2022-11-03T05:21:47;3.53;;;1.00;;
38779;SDS011;29273;49.962;9.768;2022-11-03T05:24:15;3.67;;;1.05;;
38779;SDS011;29273;49.962;9.768;2022-11-03T05:26:42;1.30;;;1.20;;
38779;SDS011;29273;49.962;9.768;2022-11-03T05:29:10;1.75;;;1.25;;
38779;SDS011;29273;49.962;9.768;2022-11-03T05:31:40;2.10;;;1.48;;
38779;SDS011;29273;49.962;9.768;2022-11-03T05:36:55;1.30;;;1.20;;
38779;SDS011;29273;49.962;9.768;2022-11-03T05:39:30;1.70;;;0.98;;
38779;SDS011;29273;49.962;9.768;2022-11-03T05:42:00;1.23;;;1.10;;
38779;SDS011;29273;49.962;9.768;2022-11-03T05:44:33;4.18;;;1.30;;
38779;SDS011;29273;49.962;9.768;2022-11-03T05:47:23;2.35;;;0.95;;
38779;SDS011;29273;49.962;9.768;2022-11-03T05:49:49;1.15;;;1.00;;
38779;SDS011;29273;49.962;9.768;2022-11-03T05:52:23;1.35;;;1.10;;
38779;SDS011;29273;49.962;9.768;2022-11-03T05:54:51;1.30;;;1.20;;
38779;SDS011;29273;49.962;9.768;2022-11-03T05:57:18;1.33;;;1.20;;
38779;SDS011;29273;49.962;9.768;2022-11-03T05:59:45;1.02;;;1.02;;
38779;SDS011;29273;49.962;9.768;2022-11-03T06:05:00;1.35;;;1.10;;
38779;SDS011;29273;49.962;9.768;2022-11-03T06:07:28;4.03;;;1.38;;
38779;SDS011;29273;49.962;9.768;2022-11-03T06:09:56;1.58;;;1.40;;
38779;SDS011;29273;49.962;9.768;2022-11-03T06:12:22;1.23;;;1.13;;
38779;SDS011;29273;49.962;9.768;2022-11-03T06:14:50;1.40;;;1.30;;
38779;SDS011;29273;49.962;9.768;2022-11-03T06:17:21;1.48;;;1.38;;
38779;SDS011;29273;49.962;9.768;2022-11-03T06:19:48;1.40;;;1.17;;
38779;SDS011;29273;49.962;9.768;2022-11-03T06:24:47;1.73;;;1.40;;
38779;SDS011;29273;49.962;9.768;2022-11-03T06:27:21;1.60;;;1.42;;
38779;SDS011;29273;49.962;9.768;2022-11-03T06:29:51;1.65;;;1.35;;
38779;SDS011;29273;49.962;9.768;2022-11-03T06:32:26;1.65;;;1.55;;
38779;SDS011;29273;49.962;9.768;2022-11-03T06:34:53;1.58;;;1.48;;
38779;SDS011;29273;49.962;9.768;2022-11-03T06:37:30;1.77;;;1.55;;
38779;SDS011;29273;49.962;9.768;2022-11-03T06:39:57;1.67;;;1.35;;
38779;SDS011;29273;49.962;9.768;2022-11-03T06:42:25;3.72;;;1.20;;
38779;SDS011;29273;49.962;9.768;2022-11-03T06:44:55;1.67;;;1.48;;
38779;SDS011;29273;49.962;9.768;2022-11-03T06:47:25;1.85;;;1.40;;
38779;SDS011;29273;49.962;9.768;2022-11-03T06:49:53;2.13;;;1.60;;
38779;SDS011;29273;49.962;9.768;2022-11-03T06:52:34;1.95;;;1.52;;
38779;SDS011;29273;49.962;9.768;2022-11-03T06:57:37;1.42;;;1.33;;
38779;SDS011;29273;49.962;9.768;2022-11-03T07:02:49;1.45;;;1.30;;
38779;SDS011;29273;49.962;9.768;2022-11-03T07:05:21;1.90;;;1.55;;
38779;SDS011;29273;49.962;9.768;2022-11-03T07:07:52;1.60;;;1.40;;
38779;SDS011;29273;49.962;9.768;2022-11-03T07:10:24;1.83;;;1.33;;
38779;SDS011;29273;49.962;9.768;2022-11-03T07:12:52;1.75;;;1.30;;
38779;SDS011;29273;49.962;9.768;2022-11-03T07:15:21;1.10;;;0.93;;
38779;SDS011;29273;49.962;9.768;2022-11-03T07:17:50;1.90;;;1.70;;
38779;SDS011;29273;49.962;9.768;2022-11-03T07:20:16;3.10;;;1.42;;
38779;SDS011;29273;49.962;9.768;2022-11-03T07:22:42;1.95;;;1.60;;
38779;SDS011;29273;49.962;9.768;2022-11-03T07:25:18;2.03;;;1.60;;
38779;SDS011;29273;49.962;9.768;2022-11-03T07:27:47;2.05;;;1.50;;
38779;SDS011;29273;49.962;9.768;2022-11-03T07:30:18;4.30;;;1.40;;
38779;SDS011;29273;49.962;9.768;2022-11-03T07:32:50;2.67;;;1.70;;
38779;SDS011;29273;49.962;9.768;2022-11-03T07:35:23;2.85;;;1.60;;
38779;SDS011;29273;49.962;9.768;2022-11-03T07:37:53;3.28;;;1.38;;
38779;SDS011;29273;49.962;9.768;2022-11-03T07:40:25;1.40;;;1.30;;
38779;SDS011;29273;49.962;9.768;2022-11-03T07:42:56;1.77;;;1.40;;
38779;SDS011;29273;49.962;9.768;2022-11-03T07:48:21;1.33;;;1.20;;
38779;SDS011;29273;49.962;9.768;2022-11-03T07:50:50;1.60;;;1.20;;
38779;SDS011;29273;49.962;9.768;2022-11-03T07:53:28;1.38;;;1.27;;
38779;SDS011;29273;49.962;9.768;2022-11-03T08:04:44;3.58;;;1.30;;
38779;SDS011;29273;49.962;9.768;2022-11-03T08:06:54;1.70;;;1.35;;
38779;SDS011;29273;49.962;9.768;2022-11-03T08:09:20;1.25;;;1.13;;
38779;SDS011;29273;49.962;9.768;2022-11-03T08:11:46;2.33;;;1.20;;
38779;SDS011;29273;49.962;9.768;2022-11-03T08:14:12;1.45;;;1.25;;
38779;SDS011;29273;49.962;9.768;2022-11-03T08:16:38;1.83;;;1.50;;
38779;SDS011;29273;49.962;9.768;2022-11-03T08:19:04;1.98;;;1.40;;
38779;SDS011;29273;49.962;9.768;2022-11-03T08:21:30;4.00;;;1.63;;
38779;SDS011;29273;49.962;9.768;2022-11-03T08:23:55;2.10;;;1.52;;
38779;SDS011;29273;49.962;9.768;2022-11-03T08:26:21;2.17;;;1.42;;
38779;SDS011;29273;49.962;9.768;2022-11-03T08:28:46;2.38;;;1.50;;
38779;SDS011;29273;49.962;9.768;2022-11-03T08:31:12;1.85;;;1.45;;
38779;SDS011;29273;49.962;9.768;2022-11-03T08:33:37;2.13;;;1.50;;
38779;SDS011;29273;49.962;9.768;2022-11-03T08:36:03;1.63;;;1.52;;
38779;SDS011;29273;49.962;9.768;2022-11-03T08:38:29;1.70;;;1.60;;
38779;SDS011;29273;49.962;9.768;2022-11-03T08:40:55;2.47;;;1.77;;
38779;SDS011;29273;49.962;9.768;2022-11-03T08:43:22;3.40;;;2.08;;
38779;SDS011;29273;49.962;9.768;2022-11-03T08:45:47;2.97;;;2.10;;
38779;SDS011;29273;49.962;9.768;2022-11-03T08:48:18;3.50;;;2.30;;
38779;SDS011;29273;49.962;9.768;2022-11-03T08:50:47;3.10;;;2.10;;
38779;SDS011;29273;49.962;9.768;2022-11-03T08:53:18;2.00;;;1.80;;
38779;SDS011;29273;49.962;9.768;2022-11-03T08:55:48;1.95;;;1.70;;
38779;SDS011;29273;49.962;9.768;2022-11-03T08:58:14;2.63;;;1.60;;
38779;SDS011;29273;49.962;9.768;2022-11-03T09:00:39;2.53;;;1.55;;
38779;SDS011;29273;49.962;9.768;2022-11-03T09:03:05;3.08;;;1.73;;
38779;SDS011;29273;49.962;9.768;2022-11-03T09:05:30;3.20;;;2.03;;
38779;SDS011;29273;49.962;9.768;2022-11-03T09:07:55;2.45;;;1.70;;
38779;SDS011;29273;49.962;9.768;2022-11-03T09:10:21;1.70;;;1.50;;
38779;SDS011;29273;49.962;9.768;2022-11-03T09:12:47;2.10;;;1.70;;
38779;SDS011;29273;49.962;9.768;2022-11-03T09:15:12;1.80;;;1.60;;
38779;SDS011;29273;49.962;9.768;2022-11-03T09:17:38;1.58;;;1.45;;
38779;SDS011;29273;49.962;9.768;2022-11-03T09:20:04;2.17;;;1.63;;
38779;SDS011;29273;49.962;9.768;2022-11-03T09:22:30;1.83;;;1.60;;
38779;SDS011;29273;49.962;9.768;2022-11-03T09:24:56;1.90;;;1.70;;
38779;SDS011;29273;49.962;9.768;2022-11-03T09:27:21;2.15;;;1.90;;
38779;SDS011;29273;49.962;9.768;2022-11-03T09:29:47;2.20;;;2.00;;
38779;SDS011;29273;49.962;9.768;2022-11-03T09:32:13;2.13;;;1.92;;
38779;SDS011;29273;49.962;9.768;2022-11-03T09:34:38;3.50;;;2.22;;
38779;SDS011;29273;49.962;9.768;2022-11-03T09:37:04;2.70;;;1.92;;
38779;SDS011;29273;49.962;9.768;2022-11-03T09:39:30;3.70;;;2.10;;
38779;SDS011;29273;49.962;9.768;2022-11-03T09:41:55;3.08;;;2.20;;
38779;SDS011;29273;49.962;9.768;2022-11-03T09:44:22;2.33;;;1.90;;
38779;SDS011;29273;49.962;9.768;2022-11-03T09:46:49;3.63;;;2.30;;
38779;SDS011;29273;49.962;9.768;2022-11-03T09:49:15;3.38;;;1.98;;
38779;SDS011;29273;49.962;9.768;2022-11-03T09:51:43;2.13;;;1.90;;
38779;SDS011;29273;49.962;9.768;2022-11-03T09:54:10;3.92;;;2.10;;
38779;SDS011;29273;49.962;9.768;2022-11-03T09:56:39;2.90;;;1.98;;
38779;SDS011;29273;49.962;9.768;2022-11-03T10:01:42;4.05;;;1.65;;
38779;SDS011;29273;49.962;9.768;2022-11-03T10:04:10;1.88;;;1.50;;
38779;SDS011;29273;49.962;9.768;2022-11-03T10:06:36;2.85;;;1.65;;
38779;SDS011;29273;49.962;9.768;2022-11-03T10:09:05;2.05;;;1.80;;
38779;SDS011;29273;49.962;9.768;2022-11-03T10:11:38;1.90;;;1.70;;
38779;SDS011;29273;49.962;9.768;2022-11-03T10:14:03;2.65;;;2.00;;
38779;SDS011;29273;49.962;9.768;2022-11-03T10:16:31;5.22;;;1.67;;
38779;SDS011;29273;49.962;9.768;2022-11-03T10:18:56;2.13;;;1.85;;
38779;SDS011;29273;49.962;9.768;2022-11-03T10:21:24;2.38;;;1.55;;
38779;SDS011;29273;49.962;9.768;2022-11-03T10:23:52;2.28;;;1.60;;
38779;SDS011;29273;49.962;9.768;2022-11-03T10:26:18;2.90;;;1.75;;
38779;SDS011;29273;49.962;9.768;2022-11-03T10:28:55;2.42;;;1.80;;
38779;SDS011;29273;49.962;9.768;2022-11-03T10:31:22;2.72;;;1.85;;
38779;SDS011;29273;49.962;9.768;2022-11-03T10:33:56;2.13;;;1.77;;
38779;SDS011;29273;49.962;9.768;2022-11-03T10:36:23;3.13;;;1.60;;
38779;SDS011;29273;49.962;9.768;2022-11-03T10:38:48;3.15;;;2.15;;
38779;SDS011;29273;49.962;9.768;2022-11-03T10:41:15;2.22;;;1.77;;
38779;SDS011;29273;49.962;9.768;2022-11-03T10:43:43;1.75;;;1.55;;
38779;SDS011;29273;49.962;9.768;2022-11-03T10:46:23;1.92;;;1.63;;
38779;SDS011;29273;49.962;9.768;2022-11-03T10:49:00;2.10;;;1.70;;
38779;SDS011;29273;49.962;9.768;2022-11-03T10:51:27;2.35;;;1.85;;
38779;SDS011;29273;49.962;9.768;2022-11-03T10:53:55;2.53;;;1.80;;
38779;SDS011;29273;49.962;9.768;2022-11-03T10:56:21;2.13;;;1.70;;
38779;SDS011;29273;49.962;9.768;2022-11-03T10:58:46;2.38;;;1.90;;
38779;SDS011;29273;49.962;9.768;2022-11-03T11:01:12;3.53;;;1.50;;
38779;SDS011;29273;49.962;9.768;2022-11-03T11:03:42;2.65;;;1.60;;
38779;SDS011;29273;49.962;9.768;2022-11-03T11:06:18;2.47;;;1.65;;
38779;SDS011;29273;49.962;9.768;2022-11-03T11:08:58;3.20;;;1.90;;
38779;SDS011;29273;49.962;9.768;2022-11-03T11:11:25;1.85;;;1.58;;
38779;SDS011;29273;49.962;9.768;2022-11-03T11:16:46;1.67;;;1.52;;
38779;SDS011;29273;49.962;9.768;2022-11-03T11:19:13;2.53;;;1.77;;
38779;SDS011;29273;49.962;9.768;2022-11-03T11:24:08;2.70;;;1.80;;
38779;SDS011;29273;49.962;9.768;2022-11-03T11:26:35;3.50;;;1.70;;
38779;SDS011;29273;49.962;9.768;2022-11-03T11:31:33;1.75;;;1.52;;
38779;SDS011;29273;49.962;9.768;2022-11-03T11:36:43;2.90;;;1.65;;
38779;SDS011;29273;49.962;9.768;2022-11-03T11:47:20;2.67;;;1.60;;
38779;SDS011;29273;49.962;9.768;2022-11-03T11:52:31;2.70;;;1.60;;
38779;SDS011;29273;49.962;9.768;2022-11-03T11:55:04;2.35;;;1.90;;
38779;SDS011;29273;49.962;9.768;2022-11-03T11:57:32;2.75;;;1.80;;
38779;SDS011;29273;49.962;9.768;2022-11-03T11:59:59;2.85;;;1.80;;
38779;SDS011;29273;49.962;9.768;2022-11-03T12:02:28;2.63;;;1.92;;
38779;SDS011;29273;49.962;9.768;2022-11-03T12:04:58;2.15;;;1.80;;
38779;SDS011;29273;49.962;9.768;2022-11-03T12:07:31;3.53;;;1.95;;
38779;SDS011;29273;49.962;9.768;2022-11-03T12:12:54;2.10;;;1.60;;
38779;SDS011;29273;49.962;9.768;2022-11-03T12:20:53;2.20;;;1.52;;
38779;SDS011;29273;49.962;9.768;2022-11-03T12:23:34;3.45;;;2.10;;
38779;SDS011;29273;49.962;9.768;2022-11-03T12:28:40;1.65;;;1.55;;
38779;SDS011;29273;49.962;9.768;2022-11-03T12:31:06;2.83;;;2.38;;
38779;SDS011;29273;49.962;9.768;2022-11-03T12:33:31;2.28;;;1.63;;
38779;SDS011;29273;49.962;9.768;2022-11-03T12:35:57;2.22;;;1.77;;
38779;SDS011;29273;49.962;9.768;2022-11-03T12:38:22;2.10;;;1.80;;
38779;SDS011;29273;49.962;9.768;2022-11-03T12:40:48;1.90;;;1.70;;
38779;SDS011;29273;49.962;9.768;2022-11-03T12:43:14;2.38;;;1.73;;
38779;SDS011;29273;49.962;9.768;2022-11-03T12:45:41;2.70;;;1.70;;
38779;SDS011;29273;49.962;9.768;2022-11-03T12:48:07;2.25;;;1.90;;
38779;SDS011;29273;49.962;9.768;2022-11-03T12:50:33;3.53;;;2.28;;
38779;SDS011;29273;49.962;9.768;2022-11-03T12:53:02;2.45;;;1.80;;
38779;SDS011;29273;49.962;9.768;2022-11-03T12:55:28;3.42;;;2.17;;
38779;SDS011;29273;49.962;9.768;2022-11-03T12:57:54;2.38;;;1.90;;
38779;SDS011;29273;49.962;9.768;2022-11-03T13:00:19;3.00;;;1.75;;
38779;SDS011;29273;49.962;9.768;2022-11-03T13:02:45;3.08;;;2.08;;
38779;SDS011;29273;49.962;9.768;2022-11-03T13:05:11;3.03;;;1.90;;
38779;SDS011;29273;49.962;9.768;2022-11-03T13:07:40;1.73;;;1.50;;
38779;SDS011;29273;49.962;9.768;2022-11-03T13:10:06;2.67;;;1.83;;
38779;SDS011;29273;49.962;9.768;2022-11-03T13:12:32;2.13;;;1.83;;
38779;SDS011;29273;49.962;9.768;2022-11-03T13:14:58;3.05;;;1.88;;
38779;SDS011;29273;49.962;9.768;2022-11-03T13:17:25;3.05;;;2.10;;
38779;SDS011;29273;49.962;9.768;2022-11-03T13:19:51;2.92;;;1.95;;
38779;SDS011;29273;49.962;9.768;2022-11-03T13:22:17;4.18;;;1.90;;
38779;SDS011;29273;49.962;9.768;2022-11-03T13:24:43;2.47;;;1.90;;
38779;SDS011;29273;49.962;9.768;2022-11-03T13:27:09;3.88;;;2.08;;
38779;SDS011;29273;49.962;9.768;2022-11-03T13:29:34;5.63;;;2.20;;
38779;SDS011;29273;49.962;9.768;2022-11-03T13:32:00;4.65;;;1.90;;
38779;SDS011;29273;49.962;9.768;2022-11-03T13:34:27;2.42;;;1.70;;
38779;SDS011;29273;49.962;9.768;2022-11-03T13:36:53;2.08;;;1.77;;
38779;SDS011;29273;49.962;9.768;2022-11-03T13:39:19;2.75;;;2.00;;
38779;SDS011;29273;49.962;9.768;2022-11-03T13:41:45;2.05;;;1.85;;
38779;SDS011;29273;49.962;9.768;2022-11-03T13:44:11;1.98;;;1.60;;
38779;SDS011;29273;49.962;9.768;2022-11-03T13:46:36;2.38;;;1.77;;
38779;SDS011;29273;49.962;9.768;2022-11-03T13:49:02;3.35;;;1.92;;
38779;SDS011;29273;49.962;9.768;2022-11-03T13:51:28;4.90;;;2.00;;
38779;SDS011;29273;49.962;9.768;2022-11-03T13:53:53;3.05;;;2.13;;
38779;SDS011;29273;49.962;9.768;2022-11-03T13:56:19;4.28;;;2.15;;
38779;SDS011;29273;49.962;9.768;2022-11-03T13:58:45;2.92;;;2.17;;
38779;SDS011;29273;49.962;9.768;2022-11-03T14:01:10;3.05;;;2.13;;
38779;SDS011;29273;49.962;9.768;2022-11-03T14:03:35;3.30;;;2.17;;
38779;SDS011;29273;49.962;9.768;2022-11-03T14:06:01;3.22;;;2.05;;
38779;SDS011;29273;49.962;9.768;2022-11-03T14:08:27;2.78;;;1.92;;
38779;SDS011;29273;49.962;9.768;2022-11-03T14:10:52;2.40;;;2.00;;
38779;SDS011;29273;49.962;9.768;2022-11-03T14:13:18;2.35;;;1.65;;
38779;SDS011;29273;49.962;9.768;2022-11-03T14:15:49;2.90;;;1.98;;
38779;SDS011;29273;49.962;9.768;2022-11-03T14:18:15;2.25;;;1.70;;
38779;SDS011;29273;49.962;9.768;2022-11-03T14:20:42;2.67;;;1.90;;
38779;SDS011;29273;49.962;9.768;2022-11-03T14:23:07;2.47;;;1.70;;
38779;SDS011;29273;49.962;9.768;2022-11-03T14:25:33;3.95;;;2.45;;
38779;SDS011;29273;49.962;9.768;2022-11-03T14:27:58;2.53;;;1.77;;
38779;SDS011;29273;49.962;9.768;2022-11-03T14:30:24;3.47;;;1.92;;
38779;SDS011;29273;49.962;9.768;2022-11-03T14:32:49;2.58;;;2.10;;
38779;SDS011;29273;49.962;9.768;2022-11-03T14:35:16;2.95;;;1.92;;
38779;SDS011;29273;49.962;9.768;2022-11-03T14:37:41;2.97;;;2.22;;
38779;SDS011;29273;49.962;9.768;2022-11-03T14:40:08;3.00;;;2.30;;
38779;SDS011;29273;49.962;9.768;2022-11-03T14:42:53;3.05;;;2.22;;
38779;SDS011;29273;49.962;9.768;2022-11-03T14:45:19;5.60;;;2.35;;
38779;SDS011;29273;49.962;9.768;2022-11-03T14:47:44;2.70;;;2.15;;
38779;SDS011;29273;49.962;9.768;2022-11-03T14:50:10;3.08;;;2.28;;
38779;SDS011;29273;49.962;9.768;2022-11-03T14:52:35;5.00;;;2.70;;
38779;SDS011;29273;49.962;9.768;2022-11-03T14:55:01;4.03;;;2.42;;
38779;SDS011;29273;49.962;9.768;2022-11-03T14:57:26;4.20;;;2.20;;
38779;SDS011;29273;49.962;9.768;2022-11-03T14:59:52;3.08;;;2.17;;
38779;SDS011;29273;49.962;9.768;2022-11-03T15:02:17;3.63;;;2.28;;
38779;SDS011;29273;49.962;9.768;2022-11-03T15:04:43;4.25;;;2.60;;
38779;SDS011;29273;49.962;9.768;2022-11-03T15:07:08;4.43;;;2.72;;
38779;SDS011;29273;49.962;9.768;2022-11-03T15:09:34;3.60;;;2.60;;
38779;SDS011;29273;49.962;9.768;2022-11-03T15:11:59;3.92;;;2.83;;
38779;SDS011;29273;49.962;9.768;2022-11-03T15:14:24;5.15;;;2.78;;
38779;SDS011;29273;49.962;9.768;2022-11-03T15:16:50;4.47;;;2.65;;
38779;SDS011;29273;49.962;9.768;2022-11-03T15:19:15;3.08;;;2.40;;
38779;SDS011;29273;49.962;9.768;2022-11-03T15:21:41;3.28;;;2.28;;
38779;SDS011;29273;49.962;9.768;2022-11-03T15:24:06;4.35;;;2.33;;
38779;SDS011;29273;49.962;9.768;2022-11-03T15:26:32;3.28;;;2.45;;
38779;SDS011;29273;49.962;9.768;2022-11-03T15:28:57;4.18;;;2.20;;
38779;SDS011;29273;49.962;9.768;2022-11-03T15:31:23;4.65;;;2.35;;
38779;SDS011;29273;49.962;9.768;2022-11-03T15:33:48;4.35;;;2.45;;
38779;SDS011;29273;49.962;9.768;2022-11-03T15:36:14;3.00;;;2.22;;
38779;SDS011;29273;49.962;9.768;2022-11-03T15:38:40;4.43;;;2.20;;
38779;SDS011;29273;49.962;9.768;2022-11-03T15:41:05;3.38;;;2.30;;
38779;SDS011;29273;49.962;9.768;2022-11-03T15:43:43;5.30;;;2.22;;
38779;SDS011;29273;49.962;9.768;2022-11-03T15:46:10;3.35;;;2.10;;
38779;SDS011;29273;49.962;9.768;2022-11-03T15:48:36;3.67;;;2.60;;
38779;SDS011;29273;49.962;9.768;2022-11-03T15:51:02;4.47;;;2.58;;
38779;SDS011;29273;49.962;9.768;2022-11-03T15:53:28;3.05;;;2.30;;
38779;SDS011;29273;49.962;9.768;2022-11-03T15:55:54;5.50;;;2.70;;
38779;SDS011;29273;49.962;9.768;2022-11-03T15:58:19;4.97;;;2.53;;
38779;SDS011;29273;49.962;9.768;2022-11-03T16:00:44;4.60;;;2.55;;
38779;SDS011;29273;49.962;9.768;2022-11-03T16:03:10;3.47;;;2.47;;
38779;SDS011;29273;49.962;9.768;2022-11-03T16:05:35;3.08;;;2.35;;
38779;SDS011;29273;49.962;9.768;2022-11-03T16:08:01;4.35;;;2.53;;
38779;SDS011;29273;49.962;9.768;2022-11-03T16:10:26;4.18;;;2.50;;
38779;SDS011;29273;49.962;9.768;2022-11-03T16:12:52;4.47;;;2.22;;
38779;SDS011;29273;49.962;9.768;2022-11-03T16:15:17;3.45;;;2.60;;